Grand Oaks, Illinois
Current Conditions -  °F | °C
As of 8:54 PM on Monday 26 Jan 2015 (Local Time) from KPIA Reporting Station
Haze Haze  
Wind Chill: 32°   Ceiling: 2300
Heat Index: 32°   Visibility: 4mi
Dew Point: 30°   Wind: 0mph
Humidity: 92%   Direction: NA
Pressure: 29.89"   Gusts: NA
Location:  40.5996°N, 89.5548°W
Report Text: KPIA 270254Z 00000KT 4SM BR OVC023 00/M01 A2989 RMK AO2 SLP129 T00001011 51005
Loading
Personal Weather Stations






























Interactive Weather Map New forecast layout! Learn more

10-Day Weather Forecast

Advertisements
Track Severe Weather on mobile